Lake Of The Woods, OR

6:09 AM PDT on August 24, 2016 (GMT -0700)
Williamson River at Hexagenia Ranch | | Change Station

Elev 4163 ft 42.54 °N, 121.88 °W | Updated 4 seconds ago

Clear
Clear
40.8 °F
Feels Like 41 °F
N
0.0
Wind Variable Wind from NW
Gusts 0.0 mph

Today
High -- | Low -- °F
--% Chance of Precip.
Yesterday
High -- | Low -- °F
Precip. -- in
Pressure 30.13 in
Visibility 10.0 miles
Clouds Clear
Windchill 41 °F
Dew Point 35 °F
Humidity 81%
Rainfall 0.00 in
Snow Depth Not available.
6:26 AM 7:55 PM
Waning Gibbous, 57% visible
METAR KLMT 241253Z AUTO 00000KT 10SM CLR 06/02 A3022 RMK AO2 SLP202 T00610017
Pressure 30.13 in
Visibility 10.0 miles
Clouds Clear
Windchill 41 °F
Dew Point 35 °F
Humidity 81%
Rainfall 0.00 in
Snow Depth Not available.
6:26 AM 7:55 PM
Waning Gibbous, 57% visible
METAR KLMT 241253Z AUTO 00000KT 10SM CLR 06/02 A3022 RMK AO2 SLP202 T00610017

10-Day Weather Forecast

Almanac

Astronomy

Aug. 24, 2016 Rise Set
Actual Time
Civil Twilight
Nautical Twilight
Astronomical Twilight
Moon
Length of Visible Light
Length of Day
Tomorrow will be .
, % of the Moon is Illuminated

Today's Extremes

State Highs State Lows

Community

WunderPhotos

Upload Photos

1,934,586 photos uploaded!

WunderBlog® & News

Nearby

Air Quality

  Air Quality AQ Index Pollutant
Not available.

Snow Depth

Station Depth Elevation

Earthquake Activity

City Distance Mag. Time & Date
Minimum magnitude displayed is 2.5.

Coastal Water Temperatures

Place Temperature

Stations

Nearby Weather Stations

Station Location Temp. Windchill Dew Point Humidity Wind Precip. Elev Updated Type
                   

Watches & Warnings

There are currently no watches in effect.